sensor_id;sensor_type;location;lat;lon;timestamp;P1;durP1;ratioP1;P2;durP2;ratioP2
49730;SDS011;35622;52.008;5.426;2022-07-06T00:01:40;4.00;;;2.10;;
49730;SDS011;35622;52.008;5.426;2022-07-06T00:04:06;5.18;;;2.42;;
49730;SDS011;35622;52.008;5.426;2022-07-06T00:06:32;4.10;;;2.10;;
49730;SDS011;35622;52.008;5.426;2022-07-06T00:08:58;3.03;;;2.00;;
49730;SDS011;35622;52.008;5.426;2022-07-06T00:11:24;5.32;;;1.80;;
49730;SDS011;35622;52.008;5.426;2022-07-06T00:13:50;3.33;;;1.85;;
49730;SDS011;35622;52.008;5.426;2022-07-06T00:16:15;3.30;;;1.95;;
49730;SDS011;35622;52.008;5.426;2022-07-06T00:18:41;4.30;;;1.98;;
49730;SDS011;35622;52.008;5.426;2022-07-06T00:21:07;4.25;;;2.30;;
49730;SDS011;35622;52.008;5.426;2022-07-06T00:23:32;4.30;;;2.10;;
49730;SDS011;35622;52.008;5.426;2022-07-06T00:25:58;6.15;;;2.03;;
49730;SDS011;35622;52.008;5.426;2022-07-06T00:28:24;3.75;;;2.00;;
49730;SDS011;35622;52.008;5.426;2022-07-06T00:30:49;4.45;;;1.90;;
49730;SDS011;35622;52.008;5.426;2022-07-06T00:33:15;3.95;;;1.77;;
49730;SDS011;35622;52.008;5.426;2022-07-06T00:35:41;4.50;;;1.80;;
49730;SDS011;35622;52.008;5.426;2022-07-06T00:38:06;3.67;;;2.05;;
49730;SDS011;35622;52.008;5.426;2022-07-06T00:40:32;4.65;;;2.08;;
49730;SDS011;35622;52.008;5.426;2022-07-06T00:42:57;3.63;;;1.83;;
49730;SDS011;35622;52.008;5.426;2022-07-06T00:45:23;3.45;;;1.63;;
49730;SDS011;35622;52.008;5.426;2022-07-06T00:47:49;4.32;;;2.22;;
49730;SDS011;35622;52.008;5.426;2022-07-06T00:50:15;3.80;;;1.90;;
49730;SDS011;35622;52.008;5.426;2022-07-06T00:52:52;3.88;;;1.88;;
49730;SDS011;35622;52.008;5.426;2022-07-06T00:55:20;4.45;;;1.90;;
49730;SDS011;35622;52.008;5.426;2022-07-06T00:57:47;2.72;;;1.73;;
49730;SDS011;35622;52.008;5.426;2022-07-06T01:00:14;3.47;;;1.65;;
49730;SDS011;35622;52.008;5.426;2022-07-06T01:02:41;3.65;;;1.80;;
49730;SDS011;35622;52.008;5.426;2022-07-06T01:05:07;3.63;;;1.95;;
49730;SDS011;35622;52.008;5.426;2022-07-06T01:07:35;3.25;;;1.50;;
49730;SDS011;35622;52.008;5.426;2022-07-06T01:10:04;4.65;;;1.70;;
49730;SDS011;35622;52.008;5.426;2022-07-06T01:12:31;2.22;;;1.60;;
49730;SDS011;35622;52.008;5.426;2022-07-06T01:14:59;2.85;;;1.52;;
49730;SDS011;35622;52.008;5.426;2022-07-06T01:17:25;3.65;;;1.40;;
49730;SDS011;35622;52.008;5.426;2022-07-06T01:19:51;2.00;;;1.42;;
49730;SDS011;35622;52.008;5.426;2022-07-06T01:22:17;2.63;;;1.60;;
49730;SDS011;35622;52.008;5.426;2022-07-06T01:24:43;1.75;;;1.30;;
49730;SDS011;35622;52.008;5.426;2022-07-06T01:27:08;3.20;;;1.50;;
49730;SDS011;35622;52.008;5.426;2022-07-06T01:29:34;4.28;;;1.52;;
49730;SDS011;35622;52.008;5.426;2022-07-06T01:32:00;4.22;;;1.95;;
49730;SDS011;35622;52.008;5.426;2022-07-06T01:34:26;2.45;;;1.48;;
49730;SDS011;35622;52.008;5.426;2022-07-06T01:36:51;3.45;;;1.63;;
49730;SDS011;35622;52.008;5.426;2022-07-06T01:39:17;1.65;;;1.30;;
49730;SDS011;35622;52.008;5.426;2022-07-06T01:41:44;4.57;;;1.67;;
49730;SDS011;35622;52.008;5.426;2022-07-06T01:44:09;3.40;;;1.80;;
49730;SDS011;35622;52.008;5.426;2022-07-06T01:46:35;3.85;;;1.52;;
49730;SDS011;35622;52.008;5.426;2022-07-06T01:49:01;3.88;;;1.75;;
49730;SDS011;35622;52.008;5.426;2022-07-06T01:51:27;3.22;;;1.90;;
49730;SDS011;35622;52.008;5.426;2022-07-06T01:53:52;3.58;;;1.80;;
49730;SDS011;35622;52.008;5.426;2022-07-06T01:56:18;2.95;;;1.70;;
49730;SDS011;35622;52.008;5.426;2022-07-06T01:58:45;4.97;;;1.85;;
49730;SDS011;35622;52.008;5.426;2022-07-06T02:01:18;4.20;;;1.70;;
49730;SDS011;35622;52.008;5.426;2022-07-06T02:03:45;2.08;;;1.20;;
49730;SDS011;35622;52.008;5.426;2022-07-06T02:06:11;3.45;;;1.40;;
49730;SDS011;35622;52.008;5.426;2022-07-06T02:08:38;1.98;;;1.45;;
49730;SDS011;35622;52.008;5.426;2022-07-06T02:11:05;7.00;;;1.65;;
49730;SDS011;35622;52.008;5.426;2022-07-06T02:13:31;3.25;;;1.90;;
49730;SDS011;35622;52.008;5.426;2022-07-06T02:15:58;4.18;;;1.65;;
49730;SDS011;35622;52.008;5.426;2022-07-06T02:18:24;3.85;;;1.70;;
49730;SDS011;35622;52.008;5.426;2022-07-06T02:20:49;3.42;;;1.50;;
49730;SDS011;35622;52.008;5.426;2022-07-06T02:23:15;4.10;;;1.65;;
49730;SDS011;35622;52.008;5.426;2022-07-06T02:25:40;5.68;;;1.80;;
49730;SDS011;35622;52.008;5.426;2022-07-06T02:28:06;3.22;;;1.90;;
49730;SDS011;35622;52.008;5.426;2022-07-06T02:30:32;3.90;;;1.80;;
49730;SDS011;35622;52.008;5.426;2022-07-06T02:32:57;3.53;;;1.60;;
49730;SDS011;35622;52.008;5.426;2022-07-06T02:35:23;4.35;;;1.90;;
49730;SDS011;35622;52.008;5.426;2022-07-06T02:37:49;2.83;;;1.75;;
49730;SDS011;35622;52.008;5.426;2022-07-06T02:40:14;4.38;;;1.63;;
49730;SDS011;35622;52.008;5.426;2022-07-06T02:42:40;3.38;;;1.50;;
49730;SDS011;35622;52.008;5.426;2022-07-06T02:45:06;2.70;;;1.40;;
49730;SDS011;35622;52.008;5.426;2022-07-06T02:47:32;3.60;;;1.50;;
49730;SDS011;35622;52.008;5.426;2022-07-06T02:49:58;4.07;;;1.50;;
49730;SDS011;35622;52.008;5.426;2022-07-06T02:52:23;2.67;;;1.60;;
49730;SDS011;35622;52.008;5.426;2022-07-06T02:54:49;3.63;;;1.73;;
49730;SDS011;35622;52.008;5.426;2022-07-06T02:57:15;3.30;;;1.70;;
49730;SDS011;35622;52.008;5.426;2022-07-06T02:59:41;2.78;;;1.67;;
49730;SDS011;35622;52.008;5.426;2022-07-06T03:02:07;2.78;;;1.85;;
49730;SDS011;35622;52.008;5.426;2022-07-06T03:04:33;2.85;;;1.70;;
49730;SDS011;35622;52.008;5.426;2022-07-06T03:06:58;3.83;;;1.60;;
49730;SDS011;35622;52.008;5.426;2022-07-06T03:09:24;2.72;;;1.60;;
49730;SDS011;35622;52.008;5.426;2022-07-06T03:11:50;3.40;;;1.40;;
49730;SDS011;35622;52.008;5.426;2022-07-06T03:14:15;2.88;;;1.80;;
49730;SDS011;35622;52.008;5.426;2022-07-06T03:16:41;3.50;;;1.60;;
49730;SDS011;35622;52.008;5.426;2022-07-06T03:19:06;2.47;;;1.55;;
49730;SDS011;35622;52.008;5.426;2022-07-06T03:21:32;3.95;;;1.80;;
49730;SDS011;35622;52.008;5.426;2022-07-06T03:23:58;3.22;;;1.40;;
49730;SDS011;35622;52.008;5.426;2022-07-06T03:26:23;3.95;;;1.50;;
49730;SDS011;35622;52.008;5.426;2022-07-06T03:28:49;3.05;;;1.70;;
49730;SDS011;35622;52.008;5.426;2022-07-06T03:31:14;4.85;;;2.10;;
49730;SDS011;35622;52.008;5.426;2022-07-06T03:33:40;6.50;;;2.00;;
49730;SDS011;35622;52.008;5.426;2022-07-06T03:36:06;5.47;;;2.13;;
49730;SDS011;35622;52.008;5.426;2022-07-06T03:38:32;3.75;;;2.10;;
49730;SDS011;35622;52.008;5.426;2022-07-06T03:40:58;5.22;;;1.90;;
49730;SDS011;35622;52.008;5.426;2022-07-06T03:43:23;3.15;;;1.88;;
49730;SDS011;35622;52.008;5.426;2022-07-06T03:45:49;4.40;;;2.13;;
49730;SDS011;35622;52.008;5.426;2022-07-06T03:48:14;6.40;;;2.50;;
49730;SDS011;35622;52.008;5.426;2022-07-06T03:50:40;3.20;;;2.05;;
49730;SDS011;35622;52.008;5.426;2022-07-06T03:53:06;3.10;;;2.08;;
49730;SDS011;35622;52.008;5.426;2022-07-06T03:55:31;4.65;;;2.90;;
49730;SDS011;35622;52.008;5.426;2022-07-06T03:57:57;5.70;;;2.80;;
49730;SDS011;35622;52.008;5.426;2022-07-06T04:00:22;4.35;;;2.60;;
49730;SDS011;35622;52.008;5.426;2022-07-06T04:02:48;5.45;;;3.17;;
49730;SDS011;35622;52.008;5.426;2022-07-06T04:05:13;3.83;;;2.40;;
49730;SDS011;35622;52.008;5.426;2022-07-06T04:07:39;7.75;;;2.92;;
49730;SDS011;35622;52.008;5.426;2022-07-06T04:10:05;4.18;;;2.35;;
49730;SDS011;35622;52.008;5.426;2022-07-06T04:12:31;3.15;;;2.20;;
49730;SDS011;35622;52.008;5.426;2022-07-06T04:14:57;4.18;;;2.40;;
49730;SDS011;35622;52.008;5.426;2022-07-06T04:17:23;3.05;;;2.33;;
49730;SDS011;35622;52.008;5.426;2022-07-06T04:20:08;4.30;;;2.55;;
49730;SDS011;35622;52.008;5.426;2022-07-06T04:22:38;3.67;;;2.50;;
49730;SDS011;35622;52.008;5.426;2022-07-06T04:25:04;2.85;;;2.17;;
49730;SDS011;35622;52.008;5.426;2022-07-06T04:27:30;5.57;;;2.38;;
49730;SDS011;35622;52.008;5.426;2022-07-06T04:29:55;4.70;;;2.10;;
49730;SDS011;35622;52.008;5.426;2022-07-06T04:32:21;3.00;;;2.03;;
49730;SDS011;35622;52.008;5.426;2022-07-06T04:34:46;2.67;;;1.70;;
49730;SDS011;35622;52.008;5.426;2022-07-06T04:37:12;2.80;;;1.98;;
49730;SDS011;35622;52.008;5.426;2022-07-06T04:39:37;2.80;;;2.20;;
49730;SDS011;35622;52.008;5.426;2022-07-06T04:42:03;6.25;;;2.42;;
49730;SDS011;35622;52.008;5.426;2022-07-06T04:44:29;3.75;;;2.10;;
49730;SDS011;35622;52.008;5.426;2022-07-06T04:46:54;5.97;;;2.25;;
49730;SDS011;35622;52.008;5.426;2022-07-06T04:49:20;3.38;;;1.77;;
49730;SDS011;35622;52.008;5.426;2022-07-06T04:51:45;6.65;;;3.30;;
49730;SDS011;35622;52.008;5.426;2022-07-06T04:54:11;3.03;;;1.90;;
49730;SDS011;35622;52.008;5.426;2022-07-06T04:56:36;3.08;;;2.53;;
49730;SDS011;35622;52.008;5.426;2022-07-06T04:59:02;4.05;;;1.90;;
49730;SDS011;35622;52.008;5.426;2022-07-06T05:01:27;2.70;;;2.00;;
49730;SDS011;35622;52.008;5.426;2022-07-06T05:03:53;4.90;;;2.30;;
49730;SDS011;35622;52.008;5.426;2022-07-06T05:06:18;3.95;;;2.10;;
49730;SDS011;35622;52.008;5.426;2022-07-06T05:08:45;4.75;;;2.92;;
49730;SDS011;35622;52.008;5.426;2022-07-06T05:11:10;3.65;;;1.80;;
49730;SDS011;35622;52.008;5.426;2022-07-06T05:13:36;2.45;;;1.60;;
49730;SDS011;35622;52.008;5.426;2022-07-06T05:16:02;4.18;;;2.13;;
49730;SDS011;35622;52.008;5.426;2022-07-06T05:18:27;7.18;;;2.42;;
49730;SDS011;35622;52.008;5.426;2022-07-06T05:20:53;5.13;;;2.28;;
49730;SDS011;35622;52.008;5.426;2022-07-06T05:23:18;3.20;;;1.70;;
49730;SDS011;35622;52.008;5.426;2022-07-06T05:25:44;3.40;;;1.50;;
49730;SDS011;35622;52.008;5.426;2022-07-06T05:28:09;4.22;;;1.73;;
49730;SDS011;35622;52.008;5.426;2022-07-06T05:30:35;4.18;;;1.80;;
49730;SDS011;35622;52.008;5.426;2022-07-06T05:33:01;1.60;;;1.40;;
49730;SDS011;35622;52.008;5.426;2022-07-06T05:35:26;2.83;;;1.60;;
49730;SDS011;35622;52.008;5.426;2022-07-06T05:37:52;3.58;;;1.45;;
49730;SDS011;35622;52.008;5.426;2022-07-06T05:40:17;2.58;;;1.70;;
49730;SDS011;35622;52.008;5.426;2022-07-06T05:42:43;4.53;;;1.63;;
49730;SDS011;35622;52.008;5.426;2022-07-06T05:45:09;3.55;;;1.48;;
49730;SDS011;35622;52.008;5.426;2022-07-06T05:47:34;2.50;;;1.55;;
49730;SDS011;35622;52.008;5.426;2022-07-06T05:50:18;2.47;;;1.52;;
49730;SDS011;35622;52.008;5.426;2022-07-06T05:52:45;1.95;;;1.42;;
49730;SDS011;35622;52.008;5.426;2022-07-06T05:55:24;2.33;;;1.08;;
49730;SDS011;35622;52.008;5.426;2022-07-06T05:57:49;3.85;;;1.40;;
49730;SDS011;35622;52.008;5.426;2022-07-06T06:00:15;4.93;;;1.58;;
49730;SDS011;35622;52.008;5.426;2022-07-06T06:02:41;3.00;;;1.30;;
49730;SDS011;35622;52.008;5.426;2022-07-06T06:05:08;3.50;;;1.10;;
49730;SDS011;35622;52.008;5.426;2022-07-06T06:07:35;1.80;;;1.00;;
49730;SDS011;35622;52.008;5.426;2022-07-06T06:10:04;4.07;;;1.17;;
49730;SDS011;35622;52.008;5.426;2022-07-06T06:12:32;1.08;;;0.80;;
49730;SDS011;35622;52.008;5.426;2022-07-06T06:14:57;2.47;;;1.17;;
49730;SDS011;35622;52.008;5.426;2022-07-06T06:17:23;1.95;;;0.70;;
49730;SDS011;35622;52.008;5.426;2022-07-06T06:19:49;1.27;;;0.80;;
49730;SDS011;35622;52.008;5.426;2022-07-06T06:22:14;2.88;;;0.70;;
49730;SDS011;35622;52.008;5.426;2022-07-06T06:24:40;2.58;;;0.80;;
49730;SDS011;35622;52.008;5.426;2022-07-06T06:27:05;3.13;;;0.82;;
49730;SDS011;35622;52.008;5.426;2022-07-06T06:29:31;1.25;;;0.70;;
49730;SDS011;35622;52.008;5.426;2022-07-06T06:31:57;1.48;;;0.70;;
49730;SDS011;35622;52.008;5.426;2022-07-06T06:34:23;3.15;;;1.17;;
49730;SDS011;35622;52.008;5.426;2022-07-06T06:36:48;1.95;;;0.75;;
49730;SDS011;35622;52.008;5.426;2022-07-06T06:39:14;1.52;;;0.52;;
49730;SDS011;35622;52.008;5.426;2022-07-06T06:41:40;2.78;;;0.60;;
49730;SDS011;35622;52.008;5.426;2022-07-06T06:44:05;1.73;;;0.50;;
49730;SDS011;35622;52.008;5.426;2022-07-06T06:46:31;1.92;;;0.60;;
49730;SDS011;35622;52.008;5.426;2022-07-06T06:48:56;1.27;;;0.40;;
49730;SDS011;35622;52.008;5.426;2022-07-06T06:51:22;1.70;;;0.55;;
49730;SDS011;35622;52.008;5.426;2022-07-06T06:53:47;2.67;;;0.60;;
49730;SDS011;35622;52.008;5.426;2022-07-06T06:56:13;2.03;;;0.60;;
49730;SDS011;35622;52.008;5.426;2022-07-06T06:58:39;1.88;;;0.70;;
49730;SDS011;35622;52.008;5.426;2022-07-06T07:01:04;2.88;;;0.50;;
49730;SDS011;35622;52.008;5.426;2022-07-06T07:03:30;1.70;;;0.60;;
49730;SDS011;35622;52.008;5.426;2022-07-06T07:05:56;1.17;;;0.60;;
49730;SDS011;35622;52.008;5.426;2022-07-06T07:08:22;3.70;;;0.57;;
49730;SDS011;35622;52.008;5.426;2022-07-06T07:10:48;2.75;;;0.60;;
49730;SDS011;35622;52.008;5.426;2022-07-06T07:13:13;1.95;;;0.60;;
49730;SDS011;35622;52.008;5.426;2022-07-06T07:15:39;2.97;;;0.57;;
49730;SDS011;35622;52.008;5.426;2022-07-06T07:18:05;1.83;;;0.70;;
49730;SDS011;35622;52.008;5.426;2022-07-06T07:20:30;3.58;;;0.75;;
49730;SDS011;35622;52.008;5.426;2022-07-06T07:22:58;2.05;;;0.63;;
49730;SDS011;35622;52.008;5.426;2022-07-06T07:25:24;1.58;;;0.50;;
49730;SDS011;35622;52.008;5.426;2022-07-06T07:27:49;3.63;;;0.75;;
49730;SDS011;35622;52.008;5.426;2022-07-06T07:30:15;1.70;;;0.60;;
49730;SDS011;35622;52.008;5.426;2022-07-06T07:32:41;3.60;;;0.60;;
49730;SDS011;35622;52.008;5.426;2022-07-06T07:35:07;3.00;;;0.50;;
49730;SDS011;35622;52.008;5.426;2022-07-06T07:37:33;1.27;;;0.60;;
49730;SDS011;35622;52.008;5.426;2022-07-06T07:39:59;2.58;;;0.60;;
49730;SDS011;35622;52.008;5.426;2022-07-06T07:42:24;1.77;;;0.60;;
49730;SDS011;35622;52.008;5.426;2022-07-06T07:44:50;1.88;;;0.50;;
49730;SDS011;35622;52.008;5.426;2022-07-06T07:47:16;1.10;;;0.50;;
49730;SDS011;35622;52.008;5.426;2022-07-06T07:49:42;1.73;;;0.65;;
49730;SDS011;35622;52.008;5.426;2022-07-06T07:52:08;2.78;;;0.70;;
49730;SDS011;35622;52.008;5.426;2022-07-06T07:54:33;3.20;;;0.70;;
49730;SDS011;35622;52.008;5.426;2022-07-06T07:56:59;1.15;;;0.50;;
49730;SDS011;35622;52.008;5.426;2022-07-06T07:59:25;2.10;;;0.40;;
49730;SDS011;35622;52.008;5.426;2022-07-06T08:01:51;1.98;;;0.50;;
49730;SDS011;35622;52.008;5.426;2022-07-06T08:04:17;2.47;;;0.45;;
49730;SDS011;35622;52.008;5.426;2022-07-06T08:06:43;1.98;;;0.57;;
49730;SDS011;35622;52.008;5.426;2022-07-06T08:09:08;1.85;;;0.52;;
49730;SDS011;35622;52.008;5.426;2022-07-06T08:11:34;0.73;;;0.38;;
49730;SDS011;35622;52.008;5.426;2022-07-06T08:14:00;1.33;;;0.32;;
49730;SDS011;35622;52.008;5.426;2022-07-06T08:16:26;2.55;;;0.60;;
49730;SDS011;35622;52.008;5.426;2022-07-06T08:18:52;2.80;;;0.50;;
49730;SDS011;35622;52.008;5.426;2022-07-06T08:21:18;2.40;;;0.50;;
49730;SDS011;35622;52.008;5.426;2022-07-06T08:23:43;2.25;;;0.52;;
49730;SDS011;35622;52.008;5.426;2022-07-06T08:26:09;2.55;;;0.50;;
49730;SDS011;35622;52.008;5.426;2022-07-06T08:28:34;1.35;;;0.40;;
49730;SDS011;35622;52.008;5.426;2022-07-06T08:31:00;1.90;;;0.30;;
49730;SDS011;35622;52.008;5.426;2022-07-06T08:33:26;1.58;;;0.30;;
49730;SDS011;35622;52.008;5.426;2022-07-06T08:35:51;0.93;;;0.30;;
49730;SDS011;35622;52.008;5.426;2022-07-06T08:38:17;2.08;;;0.35;;
49730;SDS011;35622;52.008;5.426;2022-07-06T08:40:43;1.38;;;0.40;;
49730;SDS011;35622;52.008;5.426;2022-07-06T08:43:12;1.52;;;0.30;;
49730;SDS011;35622;52.008;5.426;2022-07-06T08:45:41;1.73;;;0.40;;
49730;SDS011;35622;52.008;5.426;2022-07-06T08:48:22;2.47;;;0.70;;
49730;SDS011;35622;52.008;5.426;2022-07-06T08:50:49;1.73;;;0.40;;
49730;SDS011;35622;52.008;5.426;2022-07-06T08:53:16;0.60;;;0.40;;
49730;SDS011;35622;52.008;5.426;2022-07-06T08:55:42;1.15;;;0.50;;
49730;SDS011;35622;52.008;5.426;2022-07-06T08:58:08;1.92;;;0.40;;
49730;SDS011;35622;52.008;5.426;2022-07-06T09:00:34;1.45;;;0.50;;
49730;SDS011;35622;52.008;5.426;2022-07-06T09:03:01;3.08;;;0.70;;
49730;SDS011;35622;52.008;5.426;2022-07-06T09:05:28;0.80;;;0.45;;
49730;SDS011;35622;52.008;5.426;2022-07-06T09:08:00;1.45;;;0.40;;
49730;SDS011;35622;52.008;5.426;2022-07-06T09:10:27;1.38;;;0.45;;
49730;SDS011;35622;52.008;5.426;2022-07-06T09:12:53;2.08;;;0.40;;
49730;SDS011;35622;52.008;5.426;2022-07-06T09:15:29;1.98;;;0.50;;
49730;SDS011;35622;52.008;5.426;2022-07-06T09:17:55;2.38;;;0.60;;
49730;SDS011;35622;52.008;5.426;2022-07-06T09:20:22;1.77;;;0.50;;
49730;SDS011;35622;52.008;5.426;2022-07-06T09:22:48;1.40;;;0.30;;
49730;SDS011;35622;52.008;5.426;2022-07-06T09:25:15;1.23;;;0.30;;
49730;SDS011;35622;52.008;5.426;2022-07-06T09:27:45;1.48;;;0.30;;
49730;SDS011;35622;52.008;5.426;2022-07-06T09:30:19;0.85;;;0.30;;
49730;SDS011;35622;52.008;5.426;2022-07-06T09:32:47;2.78;;;0.45;;
49730;SDS011;35622;52.008;5.426;2022-07-06T09:35:22;0.98;;;0.30;;
49730;SDS011;35622;52.008;5.426;2022-07-06T09:38:11;0.98;;;0.40;;
49730;SDS011;35622;52.008;5.426;2022-07-06T09:40:39;1.58;;;0.40;;
49730;SDS011;35622;52.008;5.426;2022-07-06T09:43:16;0.73;;;0.40;;
49730;SDS011;35622;52.008;5.426;2022-07-06T09:45:49;1.50;;;0.40;;
49730;SDS011;35622;52.008;5.426;2022-07-06T09:48:20;2.40;;;0.50;;
49730;SDS011;35622;52.008;5.426;2022-07-06T09:50:48;1.02;;;0.40;;
49730;SDS011;35622;52.008;5.426;2022-07-06T09:53:22;1.20;;;0.52;;
49730;SDS011;35622;52.008;5.426;2022-07-06T09:55:50;1.10;;;0.43;;
49730;SDS011;35622;52.008;5.426;2022-07-06T09:58:18;1.50;;;0.40;;
49730;SDS011;35622;52.008;5.426;2022-07-06T10:00:45;2.50;;;0.43;;
49730;SDS011;35622;52.008;5.426;2022-07-06T10:03:11;3.13;;;0.50;;
49730;SDS011;35622;52.008;5.426;2022-07-06T10:05:38;1.15;;;0.35;;
49730;SDS011;35622;52.008;5.426;2022-07-06T10:08:06;1.50;;;0.50;;
49730;SDS011;35622;52.008;5.426;2022-07-06T10:10:34;0.55;;;0.30;;
49730;SDS011;35622;52.008;5.426;2022-07-06T10:13:01;1.63;;;0.40;;
49730;SDS011;35622;52.008;5.426;2022-07-06T10:15:29;2.40;;;0.40;;
49730;SDS011;35622;52.008;5.426;2022-07-06T10:17:58;2.45;;;0.40;;
49730;SDS011;35622;52.008;5.426;2022-07-06T10:20:27;1.52;;;0.30;;
49730;SDS011;35622;52.008;5.426;2022-07-06T10:22:54;1.50;;;0.40;;
49730;SDS011;35622;52.008;5.426;2022-07-06T10:25:23;0.70;;;0.30;;
49730;SDS011;35622;52.008;5.426;2022-07-06T10:27:50;1.08;;;0.40;;
49730;SDS011;35622;52.008;5.426;2022-07-06T10:30:16;1.20;;;0.32;;
49730;SDS011;35622;52.008;5.426;2022-07-06T10:32:43;1.58;;;0.30;;
49730;SDS011;35622;52.008;5.426;2022-07-06T10:35:11;1.70;;;0.30;;
49730;SDS011;35622;52.008;5.426;2022-07-06T10:37:38;2.22;;;0.50;;
49730;SDS011;35622;52.008;5.426;2022-07-06T10:40:04;2.58;;;0.40;;
49730;SDS011;35622;52.008;5.426;2022-07-06T10:42:49;0.73;;;0.30;;
49730;SDS011;35622;52.008;5.426;2022-07-06T10:50:53;1.17;;;0.35;;
49730;SDS011;35622;52.008;5.426;2022-07-06T10:53:27;1.55;;;0.30;;
49730;SDS011;35622;52.008;5.426;2022-07-06T10:55:55;1.35;;;0.47;;
49730;SDS011;35622;52.008;5.426;2022-07-06T10:58:34;2.28;;;0.40;;
49730;SDS011;35622;52.008;5.426;2022-07-06T11:01:05;1.17;;;0.40;;
49730;SDS011;35622;52.008;5.426;2022-07-06T11:03:32;0.80;;;0.30;;
49730;SDS011;35622;52.008;5.426;2022-07-06T11:06:07;0.85;;;0.32;;
49730;SDS011;35622;52.008;5.426;2022-07-06T11:13:58;1.00;;;0.30;;
49730;SDS011;35622;52.008;5.426;2022-07-06T11:16:25;1.50;;;0.40;;
49730;SDS011;35622;52.008;5.426;2022-07-06T11:24:12;1.85;;;0.45;;
49730;SDS011;35622;52.008;5.426;2022-07-06T11:26:39;1.63;;;0.40;;
49730;SDS011;35622;52.008;5.426;2022-07-06T11:29:08;1.13;;;0.40;;
49730;SDS011;35622;52.008;5.426;2022-07-06T11:31:36;1.40;;;0.40;;
49730;SDS011;35622;52.008;5.426;2022-07-06T11:34:04;2.15;;;0.40;;
49730;SDS011;35622;52.008;5.426;2022-07-06T11:36:30;2.05;;;0.50;;
49730;SDS011;35622;52.008;5.426;2022-07-06T11:38:56;2.08;;;0.60;;
49730;SDS011;35622;52.008;5.426;2022-07-06T11:41:21;0.95;;;0.38;;
49730;SDS011;35622;52.008;5.426;2022-07-06T11:43:47;2.13;;;0.40;;
49730;SDS011;35622;52.008;5.426;2022-07-06T11:48:55;0.90;;;0.40;;
49730;SDS011;35622;52.008;5.426;2022-07-06T11:51:22;2.97;;;0.60;;
49730;SDS011;35622;52.008;5.426;2022-07-06T11:53:50;2.92;;;0.50;;
49730;SDS011;35622;52.008;5.426;2022-07-06T11:56:20;1.58;;;0.40;;
49730;SDS011;35622;52.008;5.426;2022-07-06T11:58:59;1.02;;;0.50;;
49730;SDS011;35622;52.008;5.426;2022-07-06T12:01:26;0.70;;;0.40;;
49730;SDS011;35622;52.008;5.426;2022-07-06T12:03:57;2.78;;;0.40;;
49730;SDS011;35622;52.008;5.426;2022-07-06T12:06:25;2.28;;;0.40;;
49730;SDS011;35622;52.008;5.426;2022-07-06T12:08:52;1.55;;;0.45;;
49730;SDS011;35622;52.008;5.426;2022-07-06T12:11:22;3.30;;;0.40;;
49730;SDS011;35622;52.008;5.426;2022-07-06T12:13:53;1.88;;;0.40;;
49730;SDS011;35622;52.008;5.426;2022-07-06T12:16:20;2.45;;;0.50;;
49730;SDS011;35622;52.008;5.426;2022-07-06T12:18:49;1.25;;;0.52;;
49730;SDS011;35622;52.008;5.426;2022-07-06T12:21:15;1.40;;;0.40;;
49730;SDS011;35622;52.008;5.426;2022-07-06T12:26:14;1.67;;;0.30;;
49730;SDS011;35622;52.008;5.426;2022-07-06T12:28:41;2.08;;;0.40;;
49730;SDS011;35622;52.008;5.426;2022-07-06T12:31:08;1.33;;;0.45;;
49730;SDS011;35622;52.008;5.426;2022-07-06T12:33:34;1.83;;;0.43;;
49730;SDS011;35622;52.008;5.426;2022-07-06T12:36:18;1.55;;;0.60;;
49730;SDS011;35622;52.008;5.426;2022-07-06T12:38:44;2.17;;;0.47;;
49730;SDS011;35622;52.008;5.426;2022-07-06T12:41:11;2.83;;;0.75;;
49730;SDS011;35622;52.008;5.426;2022-07-06T12:43:48;1.63;;;0.63;;
49730;SDS011;35622;52.008;5.426;2022-07-06T12:46:28;1.50;;;0.52;;
49730;SDS011;35622;52.008;5.426;2022-07-06T12:48:55;1.67;;;0.57;;
49730;SDS011;35622;52.008;5.426;2022-07-06T12:51:21;1.40;;;0.60;;
49730;SDS011;35622;52.008;5.426;2022-07-06T12:53:47;2.42;;;0.50;;
49730;SDS011;35622;52.008;5.426;2022-07-06T12:56:13;2.15;;;0.50;;
49730;SDS011;35622;52.008;5.426;2022-07-06T12:58:39;1.45;;;0.50;;
49730;SDS011;35622;52.008;5.426;2022-07-06T13:01:18;2.60;;;0.50;;
49730;SDS011;35622;52.008;5.426;2022-07-06T13:03:44;2.85;;;0.52;;
49730;SDS011;35622;52.008;5.426;2022-07-06T13:06:09;1.42;;;0.50;;
49730;SDS011;35622;52.008;5.426;2022-07-06T13:08:35;1.48;;;0.50;;
49730;SDS011;35622;52.008;5.426;2022-07-06T13:11:01;1.50;;;0.50;;
49730;SDS011;35622;52.008;5.426;2022-07-06T13:13:26;2.70;;;0.60;;
49730;SDS011;35622;52.008;5.426;2022-07-06T13:15:52;2.70;;;0.60;;
49730;SDS011;35622;52.008;5.426;2022-07-06T13:18:18;2.13;;;0.50;;
49730;SDS011;35622;52.008;5.426;2022-07-06T13:20:44;0.82;;;0.50;;
49730;SDS011;35622;52.008;5.426;2022-07-06T13:23:10;1.80;;;0.63;;
49730;SDS011;35622;52.008;5.426;2022-07-06T13:25:35;1.45;;;0.77;;
49730;SDS011;35622;52.008;5.426;2022-07-06T13:28:01;1.08;;;0.55;;
49730;SDS011;35622;52.008;5.426;2022-07-06T13:30:26;2.72;;;0.60;;
49730;SDS011;35622;52.008;5.426;2022-07-06T13:32:52;1.65;;;0.57;;
49730;SDS011;35622;52.008;5.426;2022-07-06T13:35:18;1.80;;;0.60;;
49730;SDS011;35622;52.008;5.426;2022-07-06T13:37:44;2.60;;;0.73;;
49730;SDS011;35622;52.008;5.426;2022-07-06T13:40:12;2.63;;;0.65;;
49730;SDS011;35622;52.008;5.426;2022-07-06T13:42:37;2.53;;;0.70;;
49730;SDS011;35622;52.008;5.426;2022-07-06T13:45:03;1.92;;;0.70;;
49730;SDS011;35622;52.008;5.426;2022-07-06T13:47:29;3.22;;;0.60;;
49730;SDS011;35622;52.008;5.426;2022-07-06T13:49:55;2.28;;;0.60;;
49730;SDS011;35622;52.008;5.426;2022-07-06T13:52:20;1.63;;;0.80;;
49730;SDS011;35622;52.008;5.426;2022-07-06T13:54:46;1.85;;;0.60;;
49730;SDS011;35622;52.008;5.426;2022-07-06T13:57:11;3.08;;;0.60;;
49730;SDS011;35622;52.008;5.426;2022-07-06T13:59:37;2.72;;;0.57;;
49730;SDS011;35622;52.008;5.426;2022-07-06T14:02:03;2.17;;;0.50;;
49730;SDS011;35622;52.008;5.426;2022-07-06T14:04:28;2.28;;;0.50;;
49730;SDS011;35622;52.008;5.426;2022-07-06T14:06:54;1.25;;;0.40;;
49730;SDS011;35622;52.008;5.426;2022-07-06T14:09:20;1.23;;;0.55;;
49730;SDS011;35622;52.008;5.426;2022-07-06T14:11:45;3.05;;;0.60;;
49730;SDS011;35622;52.008;5.426;2022-07-06T14:14:11;1.80;;;0.60;;
49730;SDS011;35622;52.008;5.426;2022-07-06T14:16:36;1.98;;;0.70;;
49730;SDS011;35622;52.008;5.426;2022-07-06T14:19:04;3.08;;;0.90;;
49730;SDS011;35622;52.008;5.426;2022-07-06T14:21:30;2.00;;;0.68;;
49730;SDS011;35622;52.008;5.426;2022-07-06T14:23:55;1.88;;;0.60;;
49730;SDS011;35622;52.008;5.426;2022-07-06T14:26:21;4.93;;;1.00;;
49730;SDS011;35622;52.008;5.426;2022-07-06T14:28:46;4.07;;;1.10;;
49730;SDS011;35622;52.008;5.426;2022-07-06T14:31:12;2.97;;;1.00;;
49730;SDS011;35622;52.008;5.426;2022-07-06T14:33:38;2.03;;;0.70;;
49730;SDS011;35622;52.008;5.426;2022-07-06T14:36:04;2.13;;;0.60;;
49730;SDS011;35622;52.008;5.426;2022-07-06T14:38:30;1.83;;;0.90;;
49730;SDS011;35622;52.008;5.426;2022-07-06T14:40:55;2.88;;;0.70;;
49730;SDS011;35622;52.008;5.426;2022-07-06T14:43:21;2.90;;;0.63;;
49730;SDS011;35622;52.008;5.426;2022-07-06T14:45:46;3.53;;;0.90;;
49730;SDS011;35622;52.008;5.426;2022-07-06T14:48:12;3.30;;;0.82;;
49730;SDS011;35622;52.008;5.426;2022-07-06T14:50:38;3.97;;;1.13;;
49730;SDS011;35622;52.008;5.426;2022-07-06T14:53:04;2.42;;;0.80;;
49730;SDS011;35622;52.008;5.426;2022-07-06T14:55:30;2.80;;;0.82;;
49730;SDS011;35622;52.008;5.426;2022-07-06T14:57:55;2.97;;;0.73;;
49730;SDS011;35622;52.008;5.426;2022-07-06T15:00:21;2.53;;;0.70;;
49730;SDS011;35622;52.008;5.426;2022-07-06T15:02:47;3.65;;;1.10;;
49730;SDS011;35622;52.008;5.426;2022-07-06T15:05:12;2.25;;;0.80;;
49730;SDS011;35622;52.008;5.426;2022-07-06T15:07:38;1.70;;;0.77;;